createdAt,value
2024-02-13T00:00:01.941Z,3.40
2024-02-13T00:02:41.376Z,3.40
2024-02-13T00:05:09.925Z,3.30
2024-02-13T00:07:40.780Z,3.20
2024-02-13T00:10:12.295Z,3.10
2024-02-13T00:12:40.146Z,3.10
2024-02-13T00:15:09.141Z,3.00
2024-02-13T00:17:36.488Z,3.10
2024-02-13T00:20:09.739Z,3.00
2024-02-13T00:22:37.186Z,3.00
2024-02-13T00:25:04.468Z,3.00
2024-02-13T00:27:34.249Z,3.10
2024-02-13T00:30:04.510Z,3.10
2024-02-13T00:32:38.672Z,3.30
2024-02-13T00:35:06.987Z,3.30
2024-02-13T00:37:35.059Z,3.40
2024-02-13T00:40:04.107Z,3.40
2024-02-13T00:42:31.357Z,3.40
2024-02-13T00:45:01.507Z,3.30
2024-02-13T00:47:31.686Z,3.30
2024-02-13T00:49:59.431Z,3.30
2024-02-13T00:52:29.532Z,3.20
2024-02-13T00:54:57.483Z,3.30
2024-02-13T00:57:25.503Z,3.40
2024-02-13T00:59:52.912Z,3.40
2024-02-13T01:02:20.042Z,3.40
2024-02-13T01:04:47.201Z,3.40
2024-02-13T01:07:14.165Z,3.50
2024-02-13T01:09:40.930Z,3.50
2024-02-13T01:12:07.796Z,3.40
2024-02-13T01:14:34.661Z,3.60
2024-02-13T01:17:01.986Z,3.50
2024-02-13T01:19:28.890Z,3.40
2024-02-13T01:21:55.711Z,3.50
2024-02-13T01:24:27.744Z,3.50
2024-02-13T01:26:55.155Z,3.70
2024-02-13T01:29:22.058Z,3.70
2024-02-13T01:31:48.939Z,3.80
2024-02-13T01:34:15.931Z,3.90
2024-02-13T01:36:42.882Z,3.80
2024-02-13T01:39:10.525Z,3.90
2024-02-13T01:41:37.513Z,3.80
2024-02-13T01:44:04.752Z,4.00
2024-02-13T01:46:32.339Z,3.80
2024-02-13T01:49:00.321Z,3.70
2024-02-13T01:51:30.585Z,3.60
2024-02-13T01:54:01.240Z,3.40
2024-02-13T01:56:30.295Z,3.30
2024-02-13T01:59:00.727Z,3.20
2024-02-13T02:01:33.541Z,3.10
2024-02-13T02:04:01.232Z,3.00
2024-02-13T02:06:28.324Z,2.90
2024-02-13T02:08:56.393Z,2.80
2024-02-13T02:11:25.898Z,2.80
2024-02-13T02:13:53.831Z,2.90
2024-02-13T02:16:20.678Z,2.80
2024-02-13T02:18:47.675Z,3.10
2024-02-13T02:21:15.669Z,3.10
2024-02-13T02:23:42.546Z,3.10
2024-02-13T02:26:09.528Z,3.10
2024-02-13T02:28:36.322Z,3.00
2024-02-13T02:31:03.142Z,3.00
2024-02-13T02:33:30.119Z,2.90
2024-02-13T02:35:57.095Z,2.90
2024-02-13T02:38:24.612Z,3.00
2024-02-13T02:40:51.431Z,2.90
2024-02-13T02:43:18.287Z,2.80
2024-02-13T02:45:46.569Z,2.70
2024-02-13T02:48:15.783Z,2.80
2024-02-13T02:50:43.271Z,2.70
2024-02-13T02:53:10.299Z,2.70
2024-02-13T02:55:37.217Z,2.70
2024-02-13T02:58:04.162Z,2.70
2024-02-13T03:00:31.028Z,2.70
2024-02-13T03:02:58.074Z,2.70
2024-02-13T03:05:26.731Z,2.70
2024-02-13T03:07:53.758Z,2.70
2024-02-13T03:10:20.548Z,2.60
2024-02-13T03:12:47.647Z,2.70
2024-02-13T03:15:14.562Z,2.70
2024-02-13T03:17:42.000Z,2.70
2024-02-13T03:20:11.952Z,2.50
2024-02-13T03:22:39.460Z,2.60
2024-02-13T03:25:06.991Z,2.60
2024-02-13T03:27:33.813Z,2.60
2024-02-13T03:30:00.665Z,2.60
2024-02-13T03:32:27.734Z,2.60
2024-02-13T03:34:55.523Z,2.70
2024-02-13T03:37:22.819Z,2.80
2024-02-13T03:39:49.740Z,2.90
2024-02-13T03:42:17.477Z,2.80
2024-02-13T03:44:45.062Z,2.70
2024-02-13T03:47:12.593Z,2.70
2024-02-13T03:49:40.060Z,2.80
2024-02-13T03:52:07.589Z,2.80
2024-02-13T03:54:34.438Z,2.80
2024-02-13T03:57:02.159Z,2.70
2024-02-13T03:59:30.546Z,2.80
2024-02-13T04:01:58.388Z,2.70
2024-02-13T04:04:25.255Z,2.70
2024-02-13T04:06:52.074Z,2.80
2024-02-13T04:09:19.046Z,2.80
2024-02-13T04:11:50.593Z,2.90
2024-02-13T04:14:19.220Z,3.00
2024-02-13T04:16:45.968Z,3.00
2024-02-13T04:19:13.705Z,3.10
2024-02-13T04:21:40.594Z,3.10
2024-02-13T04:24:10.421Z,3.10
2024-02-13T04:26:41.677Z,3.10
2024-02-13T04:29:09.371Z,3.30
2024-02-13T04:31:37.594Z,3.30
2024-02-13T04:34:04.709Z,3.30
2024-02-13T04:36:33.102Z,3.40
2024-02-13T04:38:59.931Z,3.40
2024-02-13T04:41:27.083Z,3.50
2024-02-13T04:43:55.499Z,3.60
2024-02-13T04:46:26.193Z,3.60
2024-02-13T04:48:54.198Z,3.70
2024-02-13T04:51:21.433Z,3.70
2024-02-13T04:53:48.526Z,3.80
2024-02-13T04:56:16.846Z,3.70
2024-02-13T04:58:44.960Z,3.80
2024-02-13T05:01:14.697Z,3.80
2024-02-13T05:03:50.576Z,3.80
2024-02-13T05:06:36.395Z,3.70
2024-02-13T05:09:05.197Z,3.60
2024-02-13T05:11:32.459Z,3.60
2024-02-13T05:14:03.612Z,3.70
2024-02-13T05:16:32.508Z,3.70
2024-02-13T05:18:59.708Z,3.70
2024-02-13T05:21:28.014Z,3.80
2024-02-13T05:23:54.994Z,3.90
2024-02-13T05:26:22.036Z,4.00
2024-02-13T05:28:50.666Z,4.00
2024-02-13T05:31:19.139Z,4.00
2024-02-13T05:33:46.288Z,4.00
2024-02-13T05:36:13.398Z,4.10
2024-02-13T05:38:49.266Z,4.20
2024-02-13T05:41:19.519Z,4.20
2024-02-13T05:43:46.442Z,4.10
2024-02-13T05:46:14.362Z,4.20
2024-02-13T05:48:43.534Z,4.10
2024-02-13T05:51:12.636Z,4.20
2024-02-13T05:53:43.492Z,4.20
2024-02-13T05:56:13.241Z,4.30
2024-02-13T05:58:40.492Z,4.30
2024-02-13T06:01:08.694Z,4.30
2024-02-13T06:03:35.692Z,4.30
2024-02-13T06:06:02.849Z,4.30
2024-02-13T06:08:29.823Z,4.20
2024-02-13T06:10:56.634Z,4.30
2024-02-13T06:13:23.564Z,4.30
2024-02-13T06:15:50.462Z,4.30
2024-02-13T06:18:18.121Z,4.40
2024-02-13T06:20:46.124Z,4.30
2024-02-13T06:23:13.084Z,4.30
2024-02-13T06:25:39.871Z,4.40
2024-02-13T06:28:07.244Z,4.40
2024-02-13T06:30:34.319Z,4.60
2024-02-13T06:33:01.984Z,4.60
2024-02-13T06:35:28.941Z,4.70
2024-02-13T06:37:56.181Z,4.80
2024-02-13T06:40:22.993Z,4.90
2024-02-13T06:42:49.776Z,4.90
2024-02-13T06:45:16.626Z,4.90
2024-02-13T06:47:43.484Z,5.00
2024-02-13T06:50:14.191Z,4.90
2024-02-13T06:52:42.624Z,5.00
2024-02-13T06:55:09.824Z,5.10
2024-02-13T06:57:37.388Z,5.10
2024-02-13T07:00:08.764Z,5.20
2024-02-13T07:02:36.324Z,5.20
2024-02-13T07:05:05.261Z,5.20
2024-02-13T07:07:41.676Z,5.20
2024-02-13T07:10:14.201Z,5.30
2024-02-13T07:12:41.433Z,5.60
2024-02-13T07:15:09.143Z,5.60
2024-02-13T07:17:47.706Z,5.70
2024-02-13T07:20:20.324Z,5.70
2024-02-13T07:22:47.646Z,5.70
2024-02-13T07:25:16.104Z,5.70
2024-02-13T07:27:43.257Z,5.80
2024-02-13T07:30:11.843Z,5.80
2024-02-13T07:32:40.917Z,5.80
2024-02-13T07:35:08.134Z,5.70
2024-02-13T07:37:35.481Z,5.80
2024-02-13T07:40:03.418Z,5.70
2024-02-13T07:42:30.638Z,5.70
2024-02-13T07:44:59.515Z,5.80
2024-02-13T07:47:27.371Z,6.00
2024-02-13T07:50:00.719Z,6.00
2024-02-13T07:52:27.559Z,6.20
2024-02-13T07:54:54.423Z,6.40
2024-02-13T07:57:22.458Z,6.40
2024-02-13T07:59:57.145Z,6.50
2024-02-13T08:02:24.937Z,6.50
2024-02-13T08:04:52.840Z,6.60
2024-02-13T08:07:19.853Z,6.60
2024-02-13T08:09:46.900Z,6.80
2024-02-13T08:12:14.071Z,6.70
2024-02-13T08:14:41.156Z,6.80
2024-02-13T08:17:09.589Z,6.70
2024-02-13T08:19:41.509Z,6.80
2024-02-13T08:22:08.865Z,6.80
2024-02-13T08:24:36.707Z,6.90
2024-02-13T08:27:04.301Z,6.80
2024-02-13T08:29:32.015Z,6.70
2024-02-13T08:31:59.194Z,6.90
2024-02-13T08:34:26.960Z,7.10
2024-02-13T08:36:56.479Z,7.20
2024-02-13T08:39:23.356Z,7.00
2024-02-13T08:41:50.230Z,7.00
2024-02-13T08:44:17.901Z,7.00
2024-02-13T08:46:44.889Z,7.20
2024-02-13T08:49:12.967Z,7.60
2024-02-13T08:51:40.249Z,7.90
2024-02-13T08:54:12.179Z,8.10
2024-02-13T08:56:42.035Z,8.20
2024-02-13T08:59:09.542Z,7.60
2024-02-13T09:01:36.432Z,7.70
2024-02-13T09:04:03.656Z,8.10
2024-02-13T09:06:31.557Z,8.60
2024-02-13T09:08:58.912Z,8.80
2024-02-13T09:11:28.215Z,9.20
2024-02-13T09:13:55.135Z,9.60
2024-02-13T09:16:22.362Z,9.80
2024-02-13T09:18:49.319Z,9.60
2024-02-13T09:21:17.829Z,8.90
2024-02-13T09:23:44.672Z,8.60
2024-02-13T09:26:11.634Z,8.50
2024-02-13T09:28:38.561Z,8.30
2024-02-13T09:31:05.364Z,8.30
2024-02-13T09:33:32.394Z,8.50
2024-02-13T09:35:59.388Z,8.40
2024-02-13T09:38:26.869Z,9.50
2024-02-13T09:40:53.801Z,10.50
2024-02-13T09:43:20.636Z,11.00
2024-02-13T09:45:47.937Z,12.30
2024-02-13T09:48:25.168Z,12.50
2024-02-13T09:50:53.666Z,12.70
2024-02-13T09:53:20.582Z,13.40
2024-02-13T09:55:47.923Z,13.40
2024-02-13T09:58:15.126Z,13.00
2024-02-13T10:00:44.652Z,11.90
2024-02-13T10:03:13.263Z,11.40
2024-02-13T10:05:43.394Z,10.90
2024-02-13T10:08:12.765Z,11.00
2024-02-13T10:10:40.004Z,10.80
2024-02-13T10:13:08.299Z,10.80
2024-02-13T10:15:43.574Z,12.00
2024-02-13T10:18:13.108Z,13.60
2024-02-13T10:20:44.370Z,13.00
2024-02-13T10:23:14.951Z,15.40
2024-02-13T10:25:44.124Z,17.40
2024-02-13T10:28:12.686Z,17.60
2024-02-13T10:30:39.586Z,18.60
2024-02-13T10:33:07.878Z,18.80
2024-02-13T10:35:34.899Z,19.20
2024-02-13T10:38:04.721Z,17.70
2024-02-13T10:40:31.541Z,17.50
2024-02-13T10:42:59.121Z,16.20
2024-02-13T10:45:30.062Z,13.90
2024-02-13T10:48:03.497Z,13.00
2024-02-13T10:50:30.770Z,13.20
2024-02-13T10:52:59.413Z,12.30
2024-02-13T10:55:27.500Z,11.90
2024-02-13T10:57:54.449Z,13.20
2024-02-13T11:00:21.836Z,13.40
2024-02-13T11:02:55.921Z,12.50
2024-02-13T11:05:29.300Z,11.40
2024-02-13T11:07:56.765Z,11.50
2024-02-13T11:10:35.717Z,11.20
2024-02-13T11:13:06.098Z,10.60
2024-02-13T11:15:34.358Z,10.60
2024-02-13T11:18:06.407Z,10.40
2024-02-13T11:20:39.008Z,9.90
2024-02-13T11:23:16.710Z,9.70
2024-02-13T11:25:59.869Z,10.00
2024-02-13T11:28:39.752Z,10.30
2024-02-13T11:31:16.458Z,10.90
2024-02-13T11:34:05.054Z,13.90
2024-02-13T11:36:35.681Z,16.00
2024-02-13T11:39:06.322Z,15.50
2024-02-13T11:41:35.209Z,15.30
2024-02-13T11:44:10.070Z,15.30
2024-02-13T11:46:54.435Z,16.00
2024-02-13T11:49:22.308Z,16.10
2024-02-13T11:51:49.368Z,16.00
2024-02-13T11:54:16.214Z,16.10
2024-02-13T11:56:43.364Z,17.90
2024-02-13T11:59:11.853Z,17.50
2024-02-13T12:01:39.277Z,15.90
2024-02-13T12:04:09.154Z,16.60
2024-02-13T12:06:36.366Z,16.30
2024-02-13T12:09:04.134Z,15.70
2024-02-13T12:11:31.437Z,13.90
2024-02-13T12:13:59.209Z,12.80
2024-02-13T12:16:26.311Z,12.50
2024-02-13T12:18:53.634Z,12.10
2024-02-13T12:21:20.632Z,12.20
2024-02-13T12:23:51.549Z,13.30
2024-02-13T12:26:18.926Z,15.80
2024-02-13T12:28:59.039Z,15.60
2024-02-13T12:31:30.496Z,14.10
2024-02-13T12:34:07.474Z,14.20
2024-02-13T12:36:35.494Z,15.50
2024-02-13T12:39:17.644Z,16.20
2024-02-13T12:41:46.697Z,16.30
2024-02-13T12:44:18.225Z,15.90
2024-02-13T12:46:46.701Z,15.10
2024-02-13T12:49:14.212Z,14.50
2024-02-13T12:51:42.626Z,14.50
2024-02-13T12:54:11.187Z,14.80
2024-02-13T12:56:43.812Z,15.20
2024-02-13T12:59:13.961Z,14.60
2024-02-13T13:01:45.925Z,15.40
2024-02-13T13:04:17.085Z,16.20
2024-02-13T13:06:45.891Z,16.30
2024-02-13T13:09:23.205Z,17.80
2024-02-13T13:11:55.231Z,17.80
2024-02-13T13:14:22.668Z,18.00
2024-02-13T13:16:49.586Z,18.60
2024-02-13T13:19:16.649Z,19.10
2024-02-13T13:21:43.942Z,18.40
2024-02-13T13:24:12.252Z,19.00
2024-02-13T13:26:42.305Z,18.70
2024-02-13T13:29:09.764Z,20.10
2024-02-13T13:31:40.191Z,21.10
2024-02-13T13:34:09.692Z,20.30
2024-02-13T13:36:37.502Z,20.10
2024-02-13T13:39:09.440Z,19.30
2024-02-13T13:41:40.861Z,18.00
2024-02-13T13:44:09.993Z,16.30
2024-02-13T13:46:36.901Z,14.70
2024-02-13T13:49:05.371Z,13.30
2024-02-13T13:51:34.760Z,13.00
2024-02-13T13:54:02.318Z,12.50
2024-02-13T13:56:29.276Z,12.30
2024-02-13T13:58:56.151Z,12.00
2024-02-13T14:01:23.352Z,11.60
2024-02-13T14:03:50.352Z,11.30
2024-02-13T14:06:17.341Z,11.10
2024-02-13T14:08:44.237Z,11.00
2024-02-13T14:11:11.164Z,10.90
2024-02-13T14:13:38.006Z,10.70
2024-02-13T14:16:05.193Z,10.90
2024-02-13T14:18:32.505Z,11.40
2024-02-13T14:21:00.827Z,11.70
2024-02-13T14:23:28.599Z,12.30
2024-02-13T14:25:55.489Z,12.20
2024-02-13T14:28:22.568Z,12.20
2024-02-13T14:30:49.446Z,12.10
2024-02-13T14:33:16.473Z,11.90
2024-02-13T14:35:45.965Z,11.80
2024-02-13T14:38:15.241Z,11.90
2024-02-13T14:40:42.250Z,11.90
2024-02-13T14:43:10.714Z,11.90
2024-02-13T14:45:38.796Z,11.70
2024-02-13T14:48:09.310Z,12.00
2024-02-13T14:50:38.625Z,11.80
2024-02-13T14:53:09.883Z,12.00
2024-02-13T14:55:39.630Z,12.10
2024-02-13T14:58:14.861Z,12.00
2024-02-13T15:00:53.983Z,12.10
2024-02-13T15:03:24.357Z,11.70
2024-02-13T15:05:51.264Z,11.80
2024-02-13T15:08:18.588Z,11.60
2024-02-13T15:10:47.067Z,11.30
2024-02-13T15:13:16.249Z,11.00
2024-02-13T15:15:49.460Z,10.70
2024-02-13T15:18:16.888Z,10.30
2024-02-13T15:20:44.360Z,10.20
2024-02-13T15:23:13.765Z,10.10
2024-02-13T15:25:41.290Z,10.00
2024-02-13T15:28:08.197Z,9.90
2024-02-13T15:30:38.343Z,10.10
2024-02-13T15:33:06.299Z,10.20
2024-02-13T15:35:42.483Z,10.20
2024-02-13T15:38:28.849Z,10.30
2024-02-13T15:41:14.290Z,10.40
2024-02-13T15:43:59.553Z,10.60
2024-02-13T15:46:45.116Z,10.70
2024-02-13T15:49:15.156Z,10.70
2024-02-13T15:51:42.502Z,10.70
2024-02-13T15:54:09.917Z,10.60
2024-02-13T15:56:37.578Z,10.40
2024-02-13T15:59:05.096Z,10.30
2024-02-13T16:01:32.185Z,10.20
2024-02-13T16:03:59.251Z,10.00
2024-02-13T16:06:26.241Z,9.80
2024-02-13T16:08:53.224Z,9.70
2024-02-13T16:11:22.203Z,9.50
2024-02-13T16:13:51.002Z,9.50
2024-02-13T16:16:17.869Z,9.50
2024-02-13T16:18:48.720Z,9.40
2024-02-13T16:21:15.840Z,9.30
2024-02-13T16:23:42.981Z,9.20
2024-02-13T16:26:11.494Z,9.10
2024-02-13T16:28:39.043Z,8.90
2024-02-13T16:31:07.667Z,8.90
2024-02-13T16:33:35.382Z,8.80
2024-02-13T16:36:02.280Z,8.60
2024-02-13T16:38:29.358Z,8.70
2024-02-13T16:40:56.234Z,8.50
2024-02-13T16:43:23.198Z,8.40
2024-02-13T16:45:50.058Z,8.30
2024-02-13T16:48:18.037Z,8.10
2024-02-13T16:50:44.987Z,8.10
2024-02-13T16:53:13.860Z,8.10
2024-02-13T16:55:41.522Z,8.00
2024-02-13T16:58:09.914Z,7.90
2024-02-13T17:00:36.992Z,7.90
2024-02-13T17:03:04.529Z,7.90
2024-02-13T17:05:32.745Z,7.80
2024-02-13T17:08:00.772Z,7.70
2024-02-13T17:10:27.715Z,7.70
2024-02-13T17:12:54.643Z,7.70
2024-02-13T17:15:22.248Z,7.60
2024-02-13T17:17:49.573Z,7.40
2024-02-13T17:20:16.534Z,7.30
2024-02-13T17:22:44.031Z,7.20
2024-02-13T17:25:12.120Z,7.00
2024-02-13T17:27:41.883Z,7.00
2024-02-13T17:30:13.354Z,7.00
2024-02-13T17:32:41.267Z,6.90
2024-02-13T17:35:08.707Z,7.00
2024-02-13T17:37:35.729Z,7.00
2024-02-13T17:40:03.438Z,6.90
2024-02-13T17:42:30.214Z,6.80
2024-02-13T17:44:57.002Z,6.80
2024-02-13T17:47:23.915Z,6.80
2024-02-13T17:49:54.009Z,6.70
2024-02-13T17:52:21.183Z,6.60
2024-02-13T17:54:48.117Z,6.50
2024-02-13T17:57:14.865Z,6.40
2024-02-13T17:59:41.662Z,6.50
2024-02-13T18:02:08.820Z,6.40
2024-02-13T18:04:36.817Z,6.30
2024-02-13T18:07:04.917Z,6.30
2024-02-13T18:09:32.123Z,6.20
2024-02-13T18:12:03.272Z,6.10
2024-02-13T18:14:30.164Z,6.00
2024-02-13T18:16:56.968Z,6.10
2024-02-13T18:19:24.059Z,6.20
2024-02-13T18:21:51.213Z,6.00
2024-02-13T18:24:18.302Z,5.90
2024-02-13T18:26:45.604Z,5.70
2024-02-13T18:29:12.470Z,5.60
2024-02-13T18:31:39.648Z,5.60
2024-02-13T18:34:06.823Z,5.50
2024-02-13T18:36:33.755Z,5.50
2024-02-13T18:39:00.811Z,5.40
2024-02-13T18:41:29.019Z,5.40
2024-02-13T18:43:55.781Z,5.40
2024-02-13T18:46:22.579Z,5.20
2024-02-13T18:48:49.583Z,5.10
2024-02-13T18:51:17.758Z,5.10
2024-02-13T18:53:46.188Z,5.00
2024-02-13T18:56:12.985Z,5.00
2024-02-13T18:58:39.932Z,5.00
2024-02-13T19:01:07.405Z,5.00
2024-02-13T19:03:34.295Z,5.00
2024-02-13T19:06:04.580Z,5.00
2024-02-13T19:08:33.091Z,4.90
2024-02-13T19:11:00.070Z,5.00
2024-02-13T19:13:27.213Z,5.00
2024-02-13T19:15:54.337Z,4.90
2024-02-13T19:18:21.572Z,5.00
2024-02-13T19:20:48.994Z,5.00
2024-02-13T19:23:21.442Z,4.90
2024-02-13T19:25:49.273Z,4.90
2024-02-13T19:28:17.879Z,4.90
2024-02-13T19:30:47.696Z,4.90
2024-02-13T19:33:14.736Z,5.00
2024-02-13T19:35:42.180Z,5.00
2024-02-13T19:38:13.996Z,5.10
2024-02-13T19:40:41.792Z,5.00
2024-02-13T19:43:08.717Z,5.00
2024-02-13T19:45:35.606Z,5.10
2024-02-13T19:48:02.478Z,5.10
2024-02-13T19:50:29.536Z,5.00
2024-02-13T19:52:58.502Z,5.10
2024-02-13T19:55:25.532Z,5.00
2024-02-13T19:57:54.505Z,5.00
2024-02-13T20:00:23.215Z,5.00
2024-02-13T20:02:50.066Z,5.10
2024-02-13T20:05:18.228Z,5.30
2024-02-13T20:07:45.154Z,5.40
2024-02-13T20:10:11.962Z,5.30
2024-02-13T20:12:38.762Z,5.40
2024-02-13T20:15:06.803Z,5.50
2024-02-13T20:17:34.468Z,5.40
2024-02-13T20:20:01.328Z,5.40
2024-02-13T20:22:28.150Z,5.40
2024-02-13T20:24:55.189Z,5.40
2024-02-13T20:27:22.063Z,5.40
2024-02-13T20:29:50.999Z,5.30
2024-02-13T20:32:19.211Z,5.20
2024-02-13T20:34:47.073Z,5.20
2024-02-13T20:37:15.704Z,5.20
2024-02-13T20:39:42.970Z,5.30
2024-02-13T20:42:10.005Z,5.10
2024-02-13T20:44:38.999Z,5.10
2024-02-13T20:47:06.169Z,5.30
2024-02-13T20:49:33.228Z,5.30
2024-02-13T20:52:00.162Z,5.00
2024-02-13T20:54:27.735Z,4.90
2024-02-13T20:56:55.700Z,5.00
2024-02-13T20:59:22.568Z,5.00
2024-02-13T21:01:49.679Z,4.90
2024-02-13T21:04:16.607Z,4.80
2024-02-13T21:06:45.092Z,4.70
2024-02-13T21:09:13.225Z,4.70
2024-02-13T21:11:41.607Z,4.80
2024-02-13T21:14:08.859Z,4.70
2024-02-13T21:16:35.767Z,4.70
2024-02-13T21:19:02.983Z,4.70
2024-02-13T21:21:48.238Z,4.70
2024-02-13T21:24:15.120Z,4.70
2024-02-13T21:26:42.525Z,4.60
2024-02-13T21:29:09.672Z,4.60
2024-02-13T21:31:37.599Z,4.60
2024-02-13T21:34:06.885Z,4.60
2024-02-13T21:36:35.581Z,4.60
2024-02-13T21:39:08.454Z,4.60
2024-02-13T21:41:36.740Z,4.70
2024-02-13T21:44:04.260Z,4.70
2024-02-13T21:46:31.618Z,4.60
2024-02-13T21:48:58.653Z,4.60
2024-02-13T21:51:26.063Z,4.50
2024-02-13T21:53:52.919Z,4.50
2024-02-13T21:56:20.815Z,4.50
2024-02-13T21:58:48.451Z,4.60
2024-02-13T22:01:15.545Z,4.60
2024-02-13T22:03:43.271Z,4.50
2024-02-13T22:06:11.617Z,4.50
2024-02-13T22:08:38.645Z,4.60
2024-02-13T22:11:05.491Z,4.60
2024-02-13T22:13:32.282Z,4.50
2024-02-13T22:15:59.111Z,4.50
2024-02-13T22:18:26.699Z,4.50
2024-02-13T22:20:54.085Z,4.60
2024-02-13T22:23:21.122Z,4.70
2024-02-13T22:25:47.990Z,4.70
2024-02-13T22:28:14.927Z,4.70
2024-02-13T22:30:46.546Z,4.70
2024-02-13T22:33:14.007Z,4.70
2024-02-13T22:35:41.965Z,4.70
2024-02-13T22:38:08.998Z,4.70
2024-02-13T22:40:35.858Z,4.70
2024-02-13T22:43:04.640Z,4.60
2024-02-13T22:45:34.300Z,4.60
2024-02-13T22:48:03.081Z,4.50
2024-02-13T22:50:30.506Z,4.40
2024-02-13T22:52:59.523Z,4.40
2024-02-13T22:55:28.315Z,4.40
2024-02-13T22:57:55.268Z,4.40
2024-02-13T23:00:41.502Z,4.40
2024-02-13T23:03:09.112Z,4.50
2024-02-13T23:05:36.576Z,4.50
2024-02-13T23:08:07.872Z,4.50
2024-02-13T23:10:37.773Z,4.50
2024-02-13T23:13:06.007Z,4.40
2024-02-13T23:15:33.017Z,4.40
2024-02-13T23:18:00.107Z,4.30
2024-02-13T23:20:29.923Z,4.30
2024-02-13T23:22:57.187Z,4.10
2024-02-13T23:25:23.928Z,4.10
2024-02-13T23:27:50.749Z,4.10
2024-02-13T23:30:17.892Z,4.00
2024-02-13T23:32:44.760Z,4.00
2024-02-13T23:35:11.684Z,3.90
2024-02-13T23:37:38.471Z,3.80
2024-02-13T23:40:17.195Z,3.70
2024-02-13T23:42:48.767Z,3.70
2024-02-13T23:45:15.731Z,3.70
2024-02-13T23:47:44.013Z,3.60
2024-02-13T23:50:11.931Z,3.70
2024-02-13T23:52:39.074Z,3.70
2024-02-13T23:55:12.332Z,3.80
2024-02-13T23:57:41.554Z,3.90
